createdAt,value
2023-05-04T00:01:18.624Z,17.29
2023-05-04T00:03:47.090Z,17.38
2023-05-04T00:06:14.888Z,17.34
2023-05-04T00:08:42.547Z,17.18
2023-05-04T00:11:11.799Z,17.35
2023-05-04T00:13:39.094Z,17.37
2023-05-04T00:16:09.243Z,17.56
2023-05-04T00:18:38.844Z,17.36
2023-05-04T00:21:06.630Z,17.34
2023-05-04T00:23:34.176Z,17.20
2023-05-04T00:26:01.819Z,17.27
2023-05-04T00:28:29.776Z,17.44
2023-05-04T00:30:57.456Z,17.49
2023-05-04T00:33:25.548Z,17.54
2023-05-04T00:35:53.717Z,17.47
2023-05-04T00:38:23.192Z,17.54
2023-05-04T00:40:51.302Z,17.51
2023-05-04T00:43:18.584Z,17.33
2023-05-04T00:45:45.830Z,17.43
2023-05-04T00:48:14.461Z,17.56
2023-05-04T00:50:42.200Z,17.49
2023-05-04T00:53:10.770Z,17.56
2023-05-04T00:55:40.551Z,17.58
2023-05-04T00:58:09.448Z,17.41
2023-05-04T01:00:37.336Z,17.46
2023-05-04T01:03:05.268Z,17.57
2023-05-04T01:05:35.999Z,17.24
2023-05-04T01:08:06.942Z,17.35
2023-05-04T01:10:56.908Z,17.33
2023-05-04T01:13:24.156Z,17.24
2023-05-04T01:15:52.435Z,17.41
2023-05-04T01:18:19.782Z,17.34
2023-05-04T01:20:47.960Z,17.37
2023-05-04T01:23:17.296Z,17.33
2023-05-04T01:25:50.234Z,17.31
2023-05-04T01:28:23.756Z,17.25
2023-05-04T01:30:51.736Z,17.31
2023-05-04T01:33:19.789Z,17.15
2023-05-04T01:35:47.052Z,17.26
2023-05-04T01:38:14.498Z,17.07
2023-05-04T01:40:42.066Z,17.09
2023-05-04T01:43:09.580Z,17.15
2023-05-04T01:45:39.194Z,17.11
2023-05-04T01:48:06.819Z,17.11
2023-05-04T01:50:34.704Z,17.13
2023-05-04T01:53:03.926Z,16.84
2023-05-04T01:55:34.277Z,16.99
2023-05-04T01:58:01.707Z,16.99
2023-05-04T02:00:29.167Z,16.97
2023-05-04T02:03:00.422Z,17.02
2023-05-04T02:05:27.904Z,16.98
2023-05-04T02:07:56.785Z,16.87
2023-05-04T02:10:25.449Z,16.94
2023-05-04T02:12:53.108Z,16.83
2023-05-04T02:15:20.974Z,16.75
2023-05-04T02:17:49.264Z,16.67
2023-05-04T02:20:16.596Z,16.65
2023-05-04T02:22:46.357Z,16.70
2023-05-04T02:25:14.697Z,16.68
2023-05-04T02:27:42.464Z,16.62
2023-05-04T02:30:10.187Z,16.65
2023-05-04T02:32:39.065Z,16.56
2023-05-04T02:35:07.637Z,16.67
2023-05-04T02:37:35.981Z,16.54
2023-05-04T02:40:04.813Z,16.52
2023-05-04T02:42:33.969Z,16.64
2023-05-04T02:45:01.567Z,16.49
2023-05-04T02:47:29.149Z,16.33
2023-05-04T02:49:56.652Z,16.34
2023-05-04T02:52:24.721Z,16.33
2023-05-04T02:54:53.278Z,16.07
2023-05-04T02:57:21.113Z,16.07
2023-05-04T02:59:48.853Z,16.07
2023-05-04T03:02:17.938Z,16.16
2023-05-04T03:04:45.406Z,16.11
2023-05-04T03:07:14.471Z,16.15
2023-05-04T03:09:44.765Z,16.07
2023-05-04T03:12:15.251Z,16.08
2023-05-04T03:14:43.146Z,16.03
2023-05-04T03:17:10.499Z,15.88
2023-05-04T03:19:38.611Z,16.04
2023-05-04T03:22:06.833Z,15.98
2023-05-04T03:24:35.894Z,15.82
2023-05-04T03:27:03.723Z,15.97
2023-05-04T03:29:31.655Z,15.92
2023-05-04T03:31:59.518Z,15.86
2023-05-04T03:34:28.919Z,15.87
2023-05-04T03:36:59.074Z,15.73
2023-05-04T03:39:27.292Z,15.79
2023-05-04T03:41:55.133Z,15.82
2023-05-04T03:44:22.521Z,15.69
2023-05-04T03:46:51.174Z,15.77
2023-05-04T03:49:20.008Z,15.80
2023-05-04T03:51:47.537Z,15.74
2023-05-04T03:54:17.823Z,15.78
2023-05-04T03:56:47.177Z,15.86
2023-05-04T03:59:16.642Z,15.85
2023-05-04T04:01:44.873Z,16.05
2023-05-04T04:04:12.834Z,16.09
2023-05-04T04:06:43.597Z,16.17
2023-05-04T04:09:18.285Z,16.21
2023-05-04T04:11:47.434Z,16.15
2023-05-04T04:14:15.103Z,16.17
2023-05-04T04:16:44.706Z,16.39
2023-05-04T04:19:13.218Z,16.39
2023-05-04T04:21:42.030Z,16.30
2023-05-04T04:24:15.772Z,16.33
2023-05-04T04:26:47.859Z,16.35
2023-05-04T04:29:16.012Z,16.36
2023-05-04T04:31:45.087Z,16.51
2023-05-04T04:34:13.138Z,16.46
2023-05-04T04:36:42.074Z,16.56
2023-05-04T04:39:12.225Z,16.78
2023-05-04T04:41:44.914Z,16.76
2023-05-04T04:44:16.151Z,16.88
2023-05-04T04:46:46.927Z,17.13
2023-05-04T04:49:18.032Z,17.15
2023-05-04T04:51:45.937Z,17.06
2023-05-04T04:54:13.981Z,17.01
2023-05-04T04:56:52.090Z,17.05
2023-05-04T04:59:24.759Z,16.91
2023-05-04T05:01:53.766Z,16.76
2023-05-04T05:04:25.495Z,16.65
2023-05-04T05:06:54.654Z,16.67
2023-05-04T05:09:23.847Z,17.00
2023-05-04T05:11:55.845Z,17.06
2023-05-04T05:14:26.176Z,17.33
2023-05-04T05:16:54.816Z,17.22
2023-05-04T05:19:27.061Z,17.56
2023-05-04T05:21:57.159Z,17.74
2023-05-04T05:24:27.553Z,17.19
2023-05-04T05:26:56.050Z,17.21
2023-05-04T05:29:26.291Z,17.40
2023-05-04T05:31:54.056Z,17.51
2023-05-04T05:34:25.662Z,17.37
2023-05-04T05:36:54.344Z,17.43
2023-05-04T05:39:23.983Z,17.86
2023-05-04T05:41:58.991Z,17.50
2023-05-04T05:44:34.278Z,17.27
2023-05-04T05:47:05.860Z,17.55
2023-05-04T05:49:36.887Z,17.46
2023-05-04T05:52:07.289Z,18.20
2023-05-04T05:54:46.081Z,18.27
2023-05-04T05:57:15.578Z,18.25
2023-05-04T05:59:44.848Z,18.44
2023-05-04T06:02:15.004Z,18.28
2023-05-04T06:04:43.609Z,18.25
2023-05-04T06:07:13.773Z,18.26
2023-05-04T06:09:42.024Z,18.39
2023-05-04T06:12:12.327Z,18.57
2023-05-04T06:14:40.425Z,18.72
2023-05-04T06:17:10.907Z,18.16
2023-05-04T06:19:39.662Z,18.21
2023-05-04T06:22:07.127Z,18.19
2023-05-04T06:24:39.867Z,18.33
2023-05-04T06:27:11.672Z,18.24
2023-05-04T06:29:41.510Z,18.60
2023-05-04T06:32:10.053Z,18.47
2023-05-04T06:34:40.286Z,19.17
2023-05-04T06:37:16.217Z,19.34
2023-05-04T06:42:19.064Z,18.86
2023-05-04T06:44:49.194Z,18.27
2023-05-04T06:47:19.652Z,18.39
2023-05-04T06:49:48.022Z,18.37
2023-05-04T06:52:16.998Z,18.24
2023-05-04T06:54:44.543Z,18.24
2023-05-04T06:57:12.138Z,18.39
2023-05-04T06:59:39.666Z,18.64
2023-05-04T07:02:08.872Z,18.65
2023-05-04T07:04:37.334Z,18.89
2023-05-04T07:07:05.892Z,18.57
2023-05-04T07:09:35.402Z,18.98
2023-05-04T07:12:04.783Z,19.69
2023-05-04T07:14:35.097Z,20.27
2023-05-04T07:17:03.355Z,20.24
2023-05-04T07:19:33.274Z,20.34
2023-05-04T07:22:02.658Z,19.85
2023-05-04T07:24:31.043Z,20.12
2023-05-04T07:26:59.255Z,20.32
2023-05-04T07:29:27.491Z,20.99
2023-05-04T07:32:01.021Z,21.04
2023-05-04T07:34:44.443Z,21.16
2023-05-04T07:37:13.820Z,20.94
2023-05-04T07:39:50.986Z,20.90
2023-05-04T07:42:23.870Z,21.34
2023-05-04T07:44:52.219Z,21.35
2023-05-04T07:47:19.813Z,21.12
2023-05-04T07:49:49.078Z,21.29
2023-05-04T07:52:17.094Z,21.46
2023-05-04T07:54:44.383Z,21.55
2023-05-04T07:57:13.877Z,21.93
2023-05-04T07:59:44.056Z,21.71
2023-05-04T08:02:15.071Z,21.94
2023-05-04T08:04:47.219Z,21.93
2023-05-04T08:07:17.312Z,21.91
2023-05-04T08:09:48.177Z,21.84
2023-05-04T08:12:18.340Z,21.65
2023-05-04T08:14:51.676Z,21.71
2023-05-04T08:17:19.258Z,21.99
2023-05-04T08:19:48.880Z,21.94
2023-05-04T08:22:18.043Z,21.95
2023-05-04T08:24:49.128Z,21.14
2023-05-04T08:27:17.980Z,21.88
2023-05-04T08:29:47.773Z,22.07
2023-05-04T08:32:15.900Z,22.40
2023-05-04T08:34:44.447Z,21.44
2023-05-04T08:37:15.039Z,21.59
2023-05-04T08:39:54.973Z,21.87
2023-05-04T08:42:35.832Z,22.28
2023-05-04T08:45:06.087Z,22.80
2023-05-04T08:50:07.921Z,22.81
2023-05-04T08:52:37.920Z,23.17
2023-05-04T08:55:06.892Z,23.19
2023-05-04T08:57:36.060Z,22.41
2023-05-04T09:00:05.734Z,23.12
2023-05-04T09:02:33.525Z,22.84
2023-05-04T09:05:04.913Z,23.40
2023-05-04T09:07:33.133Z,23.12
2023-05-04T09:10:01.851Z,23.08
2023-05-04T09:12:31.900Z,23.61
2023-05-04T09:15:07.046Z,24.36
2023-05-04T09:17:42.080Z,23.74
2023-05-04T09:20:19.077Z,24.40
2023-05-04T09:22:46.785Z,23.77
2023-05-04T09:25:15.404Z,24.01
2023-05-04T09:27:52.524Z,24.04
2023-05-04T09:30:23.772Z,24.06
2023-05-04T09:32:53.959Z,24.24
2023-05-04T09:35:33.833Z,24.07
2023-05-04T09:38:02.633Z,23.79
2023-05-04T09:40:33.312Z,23.65
2023-05-04T09:43:02.825Z,23.60
2023-05-04T09:45:41.312Z,23.67
2023-05-04T09:48:19.198Z,23.69
2023-05-04T09:50:51.099Z,23.56
2023-05-04T09:53:21.132Z,23.40
2023-05-04T09:55:51.698Z,23.36
2023-05-04T09:58:20.048Z,23.38
2023-05-04T10:00:50.881Z,23.02
2023-05-04T10:03:21.977Z,23.66
2023-05-04T10:05:50.933Z,23.34
2023-05-04T10:08:19.976Z,23.32
2023-05-04T10:10:49.053Z,23.03
2023-05-04T10:13:17.875Z,22.86
2023-05-04T10:15:52.951Z,22.78
2023-05-04T10:18:46.199Z,22.83
2023-05-04T10:21:44.959Z,22.77
2023-05-04T10:24:16.002Z,23.38
2023-05-04T10:26:51.699Z,23.37
2023-05-04T10:29:23.846Z,23.76
2023-05-04T10:31:55.022Z,23.35
2023-05-04T10:34:30.497Z,23.18
2023-05-04T10:36:59.590Z,23.07
2023-05-04T10:39:29.780Z,22.86
2023-05-04T10:42:06.186Z,22.56
2023-05-04T10:44:35.636Z,22.80
2023-05-04T10:47:05.485Z,23.27
2023-05-04T10:49:37.224Z,23.34
2023-05-04T10:52:06.867Z,23.85
2023-05-04T10:54:37.770Z,23.95
2023-05-04T10:57:13.894Z,24.26
2023-05-04T10:59:49.806Z,24.77
2023-05-04T11:02:22.761Z,24.51
2023-05-04T11:04:58.175Z,24.68
2023-05-04T11:07:34.679Z,24.99
2023-05-04T11:10:06.392Z,24.65
2023-05-04T11:12:35.906Z,24.87
2023-05-04T11:15:16.812Z,24.89
2023-05-04T11:17:47.058Z,24.62
2023-05-04T11:20:25.661Z,25.31
2023-05-04T11:22:59.227Z,24.64
2023-05-04T11:25:30.788Z,25.04
2023-05-04T11:27:59.941Z,25.05
2023-05-04T11:30:34.495Z,25.08
2023-05-04T11:33:05.970Z,25.29
2023-05-04T11:35:36.091Z,25.22
2023-05-04T11:38:03.971Z,25.26
2023-05-04T11:40:32.319Z,24.43
2023-05-04T11:43:02.891Z,23.97
2023-05-04T11:45:39.430Z,24.51
2023-05-04T11:48:08.558Z,24.77
2023-05-04T11:50:39.208Z,24.22
2023-05-04T11:53:09.485Z,24.04
2023-05-04T11:55:39.344Z,24.01
2023-05-04T11:58:13.335Z,23.37
2023-05-04T12:00:45.888Z,23.50
2023-05-04T12:03:18.083Z,23.58
2023-05-04T12:05:57.290Z,23.31
2023-05-04T12:08:26.453Z,23.73
2023-05-04T12:11:16.843Z,23.67
2023-05-04T12:13:48.081Z,23.38
2023-05-04T12:16:21.192Z,23.80
2023-05-04T12:18:48.880Z,23.54
2023-05-04T12:21:19.580Z,23.44
2023-05-04T12:23:49.129Z,23.93
2023-05-04T12:26:19.648Z,24.17
2023-05-04T12:28:53.488Z,23.88
2023-05-04T12:31:25.410Z,24.23
2023-05-04T12:33:54.547Z,24.42
2023-05-04T12:36:24.636Z,24.54
2023-05-04T12:38:55.449Z,25.18
2023-05-04T12:41:23.936Z,25.02
2023-05-04T12:43:51.630Z,25.31
2023-05-04T12:46:22.900Z,25.75
2023-05-04T12:48:57.992Z,25.71
2023-05-04T12:51:27.890Z,25.37
2023-05-04T12:54:06.190Z,25.54
2023-05-04T12:56:36.248Z,25.70
2023-05-04T12:59:05.379Z,25.40
2023-05-04T13:04:19.935Z,25.40
2023-05-04T13:06:53.454Z,25.38
2023-05-04T13:09:32.201Z,25.58
2023-05-04T13:12:05.511Z,25.54
2023-05-04T13:14:39.816Z,25.91
2023-05-04T13:19:43.396Z,25.21
2023-05-04T13:27:25.142Z,25.40
2023-05-04T13:29:54.235Z,25.35
2023-05-04T13:32:26.654Z,24.05
2023-05-04T13:34:56.762Z,23.99
2023-05-04T13:37:25.912Z,23.82
2023-05-04T13:39:55.923Z,23.70
2023-05-04T13:45:03.240Z,24.28
2023-05-04T13:47:33.662Z,23.79
2023-05-04T13:50:02.549Z,24.04
2023-05-04T13:52:34.178Z,24.09
2023-05-04T13:55:03.430Z,23.77
2023-05-04T13:57:33.357Z,23.82
2023-05-04T14:00:07.522Z,24.05
2023-05-04T14:02:48.561Z,23.64
2023-05-04T14:07:59.015Z,24.01
2023-05-04T14:10:28.935Z,23.98
2023-05-04T14:13:02.016Z,23.77
2023-05-04T14:15:33.946Z,24.05
2023-05-04T14:18:03.061Z,23.73
2023-05-04T14:20:31.799Z,23.82
2023-05-04T14:23:01.506Z,23.78
2023-05-04T14:25:30.696Z,23.42
2023-05-04T14:27:59.963Z,23.70
2023-05-04T14:30:40.185Z,23.55
2023-05-04T14:33:09.212Z,23.89
2023-05-04T14:35:42.942Z,24.11
2023-05-04T14:40:47.101Z,23.14
2023-05-04T14:43:21.982Z,23.49
2023-05-04T14:45:51.490Z,23.87
2023-05-04T14:48:20.003Z,23.84
2023-05-04T14:50:48.869Z,23.51
2023-05-04T14:53:18.060Z,23.58
2023-05-04T14:55:47.892Z,23.24
2023-05-04T14:58:16.130Z,23.13
2023-05-04T15:03:22.097Z,23.33
2023-05-04T15:05:52.170Z,23.37
2023-05-04T15:08:34.110Z,23.40
2023-05-04T15:11:03.122Z,23.64
2023-05-04T15:13:34.025Z,23.63
2023-05-04T15:16:04.638Z,23.44
2023-05-04T15:18:35.379Z,23.42
2023-05-04T15:21:03.627Z,23.16
2023-05-04T15:23:37.411Z,23.11
2023-05-04T15:26:09.988Z,23.54
2023-05-04T15:28:37.712Z,23.39
2023-05-04T15:31:07.556Z,23.37
2023-05-04T15:33:45.078Z,23.28
2023-05-04T15:36:16.243Z,23.69
2023-05-04T15:38:45.147Z,23.27
2023-05-04T15:41:18.222Z,23.07
2023-05-04T15:43:48.235Z,23.11
2023-05-04T15:46:17.000Z,23.11
2023-05-04T15:48:47.345Z,23.09
2023-05-04T15:51:20.986Z,22.94
2023-05-04T15:53:56.001Z,23.04
2023-05-04T15:56:26.331Z,23.08
2023-05-04T15:59:03.973Z,22.98
2023-05-04T16:01:34.004Z,23.15
2023-05-04T16:04:02.682Z,22.91
2023-05-04T16:06:42.045Z,22.65
2023-05-04T16:09:19.038Z,22.79
2023-05-04T16:12:05.193Z,22.81
2023-05-04T16:14:34.326Z,22.84
2023-05-04T16:17:02.464Z,22.72
2023-05-04T16:19:31.946Z,22.60
2023-05-04T16:21:59.850Z,22.78
2023-05-04T16:24:34.968Z,22.71
2023-05-04T16:29:39.483Z,22.44
2023-05-04T16:32:10.969Z,22.86
2023-05-04T16:34:40.402Z,22.34
2023-05-04T16:37:10.952Z,22.07
2023-05-04T16:39:44.225Z,22.47
2023-05-04T16:42:14.178Z,22.35
2023-05-04T16:44:47.274Z,22.00
2023-05-04T16:47:16.659Z,22.08
2023-05-04T16:52:32.963Z,21.99
2023-05-04T16:55:05.147Z,22.05
2023-05-04T16:57:33.115Z,22.18
2023-05-04T17:00:04.105Z,22.39
2023-05-04T17:02:42.401Z,22.30
2023-05-04T17:05:10.970Z,22.46
2023-05-04T17:07:47.004Z,22.09
2023-05-04T17:12:56.173Z,22.16
2023-05-04T17:15:24.212Z,22.07
2023-05-04T17:17:53.025Z,22.05
2023-05-04T17:20:21.909Z,22.14
2023-05-04T17:22:56.130Z,22.01
2023-05-04T17:25:28.233Z,21.93
2023-05-04T17:28:05.973Z,22.08
2023-05-04T17:30:36.026Z,22.02
2023-05-04T17:33:13.181Z,21.87
2023-05-04T17:35:45.076Z,21.94
2023-05-04T17:38:19.272Z,22.00
2023-05-04T17:43:21.814Z,21.85
2023-05-04T17:45:56.258Z,21.81
2023-05-04T17:48:39.442Z,21.67
2023-05-04T17:51:17.231Z,21.73
2023-05-04T17:53:51.020Z,21.71
2023-05-04T17:56:33.295Z,21.73
2023-05-04T17:59:04.258Z,21.61
2023-05-04T18:01:32.595Z,21.57
2023-05-04T18:04:16.965Z,21.55
2023-05-04T18:06:50.673Z,21.32
2023-05-04T18:09:27.304Z,21.31
2023-05-04T18:11:59.211Z,21.26
2023-05-04T18:14:36.012Z,21.28
2023-05-04T18:17:04.266Z,21.14
2023-05-04T18:19:37.438Z,21.00
2023-05-04T18:22:15.277Z,21.04
2023-05-04T18:24:52.058Z,20.90
2023-05-04T18:27:24.227Z,20.75
2023-05-04T18:29:54.461Z,20.73
2023-05-04T18:32:32.069Z,20.60
2023-05-04T18:35:02.862Z,20.55
2023-05-04T18:37:38.981Z,20.37
2023-05-04T18:40:17.006Z,20.46
2023-05-04T18:42:52.494Z,20.38
2023-05-04T18:45:28.056Z,20.27
2023-05-04T18:48:08.009Z,20.10
2023-05-04T18:50:52.672Z,20.02
2023-05-04T18:53:30.259Z,19.96
2023-05-04T18:58:43.084Z,19.92
2023-05-04T19:01:17.011Z,19.83
2023-05-04T19:03:55.057Z,19.62
2023-05-04T19:06:28.033Z,19.64
2023-05-04T19:08:57.344Z,19.43
2023-05-04T19:11:26.982Z,19.44
2023-05-04T19:14:02.373Z,19.45
2023-05-04T19:16:37.147Z,19.34
2023-05-04T19:19:12.553Z,19.26
2023-05-04T19:21:45.847Z,19.27
2023-05-04T19:24:22.216Z,19.30
2023-05-04T19:27:01.999Z,19.30
2023-05-04T19:29:30.640Z,18.94
2023-05-04T19:32:12.048Z,18.86
2023-05-04T19:34:47.115Z,18.89
2023-05-04T19:39:58.985Z,18.84
2023-05-04T19:42:40.899Z,18.80
2023-05-04T19:45:14.072Z,18.76
2023-05-04T19:47:42.002Z,18.72
2023-05-04T19:50:12.068Z,18.45
2023-05-04T19:52:47.085Z,18.43
2023-05-04T19:55:22.249Z,18.42
2023-05-04T19:57:55.942Z,18.42
2023-05-04T20:00:31.008Z,18.32
2023-05-04T20:03:02.277Z,18.35
2023-05-04T20:05:38.411Z,18.36
2023-05-04T20:08:13.099Z,18.41
2023-05-04T20:10:42.171Z,18.41
2023-05-04T20:13:10.853Z,18.27
2023-05-04T20:15:39.848Z,17.95
2023-05-04T20:18:10.204Z,18.01
2023-05-04T20:20:39.969Z,17.99
2023-05-04T20:23:12.257Z,17.94
2023-05-04T20:25:43.008Z,17.84
2023-05-04T20:28:11.701Z,17.82
2023-05-04T20:30:41.165Z,17.70
2023-05-04T20:33:08.842Z,17.50
2023-05-04T20:35:36.654Z,17.90
2023-05-04T20:38:12.436Z,17.61
2023-05-04T20:40:50.913Z,17.57
2023-05-04T20:43:20.049Z,17.36
2023-05-04T20:45:49.248Z,17.46
2023-05-04T20:48:18.421Z,17.48
2023-05-04T20:50:47.302Z,17.49
2023-05-04T20:53:20.210Z,17.50
2023-05-04T20:55:50.014Z,17.30
2023-05-04T20:58:21.069Z,17.37
2023-05-04T21:01:01.899Z,17.39
2023-05-04T21:03:29.906Z,17.30
2023-05-04T21:05:58.425Z,17.18
2023-05-04T21:08:31.045Z,17.24
2023-05-04T21:11:02.552Z,17.12
2023-05-04T21:13:35.137Z,17.05
2023-05-04T21:16:03.985Z,17.14
2023-05-04T21:18:43.134Z,17.14
2023-05-04T21:21:11.800Z,17.27
2023-05-04T21:23:41.381Z,17.13
2023-05-04T21:26:10.291Z,17.17
2023-05-04T21:28:38.865Z,16.92
2023-05-04T21:31:09.082Z,16.89
2023-05-04T21:33:37.217Z,16.95
2023-05-04T21:36:16.287Z,16.97
2023-05-04T21:38:49.645Z,17.13
2023-05-04T21:41:18.028Z,17.15
2023-05-04T21:43:48.026Z,17.30
2023-05-04T21:46:19.235Z,17.31
2023-05-04T21:48:47.362Z,17.41
2023-05-04T21:51:15.393Z,17.22
2023-05-04T21:53:43.492Z,17.30
2023-05-04T21:56:11.856Z,17.24
2023-05-04T21:58:40.960Z,17.21
2023-05-04T22:01:09.171Z,17.59
2023-05-04T22:03:37.938Z,17.73
2023-05-04T22:06:06.589Z,17.75
2023-05-04T22:08:34.485Z,17.82
2023-05-04T22:11:02.870Z,17.66
2023-05-04T22:13:30.645Z,17.75
2023-05-04T22:15:58.393Z,17.69
2023-05-04T22:18:26.892Z,17.52
2023-05-04T22:20:55.129Z,17.32
2023-05-04T22:23:23.188Z,17.25
2023-05-04T22:25:51.217Z,17.34
2023-05-04T22:28:19.076Z,17.34
2023-05-04T22:30:57.346Z,17.35
2023-05-04T22:33:25.489Z,17.33
2023-05-04T22:35:53.486Z,17.42
2023-05-04T22:38:20.936Z,17.48
2023-05-04T22:40:50.155Z,17.42
2023-05-04T22:43:17.850Z,17.34
2023-05-04T22:45:45.535Z,17.30
2023-05-04T22:48:16.907Z,17.30
2023-05-04T22:50:45.190Z,17.36
2023-05-04T22:53:14.805Z,17.41
2023-05-04T22:55:43.895Z,17.52
2023-05-04T22:58:12.106Z,17.34
2023-05-04T23:00:40.175Z,17.63
2023-05-04T23:03:11.273Z,17.70
2023-05-04T23:05:39.199Z,17.65
2023-05-04T23:08:07.260Z,17.69
2023-05-04T23:10:35.707Z,17.74
2023-05-04T23:13:03.485Z,17.70
2023-05-04T23:15:33.561Z,17.59
2023-05-04T23:18:02.554Z,17.40
2023-05-04T23:20:30.029Z,17.29
2023-05-04T23:22:57.267Z,17.19
2023-05-04T23:25:26.409Z,17.10
2023-05-04T23:27:54.799Z,16.93
2023-05-04T23:30:22.570Z,17.10
2023-05-04T23:32:50.069Z,17.03
2023-05-04T23:35:18.026Z,17.01
2023-05-04T23:37:45.727Z,16.89
2023-05-04T23:40:13.683Z,16.83
2023-05-04T23:42:41.217Z,16.63
2023-05-04T23:45:09.325Z,16.60
2023-05-04T23:47:36.892Z,16.47
2023-05-04T23:50:05.182Z,16.55
2023-05-04T23:52:33.131Z,16.50
2023-05-04T23:55:00.804Z,16.46
2023-05-04T23:57:30.053Z,16.49
2023-05-04T23:59:57.408Z,16.38
